Time;durP1;ratioP1;P1;durP2;ratioP2;P2;SDS_P1;SDS_P2;PMS_P1;PMS_P2;Temp;Humidity;BMP_temperature;BMP_pressure;BME280_temperature;BME280_humidity;BME280_pressure;Samples;Min_cycle;Max_cycle;Signal;HPM_P1;HPM_P2
2023/05/11 00:01:25;;;;;;;;;8.25;5.00;;;;;15.49;57.77;101119.91;4924579;28;46774;-66
2023/05/11 00:03:51;;;;;;;;;8.00;6.00;;;;;15.52;57.32;101123.34;4923129;28;45942;-67
2023/05/11 00:06:16;;;;;;;;;9.75;9.00;;;;;15.51;57.92;101116.31;4924406;28;45367;-67
2023/05/11 00:08:41;;;;;;;;;10.25;8.00;;;;;15.48;57.92;101108.44;4924592;28;45362;-67
2023/05/11 00:11:10;;;;;;;;;10.00;10.00;;;;;15.54;57.60;101131.22;4924092;28;52968;-67
2023/05/11 00:13:35;;;;;;;;;6.00;5.50;;;;;15.53;57.90;101125.03;4924113;28;45378;-66
2023/05/11 00:16:00;;;;;;;;;6.75;5.00;;;;;15.51;58.05;101121.59;4906772;28;45334;-67
2023/05/11 00:18:26;;;;;;;;;8.75;6.25;;;;;15.52;57.73;101123.34;4923173;28;45330;-66
2023/05/11 00:20:51;;;;;;;;;8.75;7.00;;;;;15.50;57.93;101124.28;4923756;28;56584;-66
2023/05/11 00:23:16;;;;;;;;;6.00;6.00;;;;;15.52;57.58;101128.63;4924035;28;45480;-66
2023/05/11 00:25:42;;;;;;;;;5.00;5.00;;;;;15.48;58.08;101119.00;4924208;28;45262;-67
2023/05/11 00:28:09;;;;;;;;;8.50;6.75;;;;;15.49;57.87;101118.13;4924315;28;45239;-67
2023/05/11 00:30:34;;;;;;;;;9.75;8.00;;;;;15.50;57.86;101121.66;4907370;28;45268;-67
2023/05/11 00:32:59;;;;;;;;;9.50;7.75;;;;;15.47;57.44;101119.97;4923886;28;45719;-67
2023/05/11 00:35:25;;;;;;;;;7.00;6.50;;;;;15.49;57.90;101118.13;4923927;28;45284;-67
2023/05/11 00:37:50;;;;;;;;;8.25;7.75;;;;;15.49;57.99;101126.06;4924231;28;45395;-67
2023/05/11 00:40:15;;;;;;;;;8.25;6.75;;;;;15.46;57.73;101120.88;4923941;28;45459;-67
2023/05/11 00:42:41;;;;;;;;;9.25;8.00;;;;;15.44;58.01;101112.09;4923793;28;46014;-67
2023/05/11 00:45:06;;;;;;;;;7.75;7.75;;;;;15.43;58.19;101116.53;4922769;28;45364;-67
2023/05/11 00:47:32;;;;;;;;;8.00;7.00;;;;;15.48;57.69;101121.66;4923927;28;45402;-67
2023/05/11 00:49:57;;;;;;;;;9.00;7.75;;;;;15.47;57.29;101122.59;4923579;28;45275;-67
2023/05/11 00:52:23;;;;;;;;;9.75;7.50;;;;;15.46;57.82;101117.31;4923376;28;46116;-67
2023/05/11 00:54:49;;;;;;;;;7.00;6.00;;;;;15.46;57.89;101110.28;4923805;28;45329;-67
2023/05/11 00:57:15;;;;;;;;;5.00;4.75;;;;;15.44;57.90;101110.31;4923818;28;45326;-67
2023/05/11 00:59:40;;;;;;;;;5.75;5.75;;;;;15.48;57.73;101112.88;4922098;28;46308;-67
2023/05/11 01:02:06;;;;;;;;;4.50;4.50;;;;;15.45;58.28;101105.88;4922987;28;45225;-67
2023/05/11 01:04:32;;;;;;;;;3.75;3.00;;;;;15.48;58.12;101107.56;4923718;28;45429;-67
2023/05/11 01:07:16;;;;;;;;;5.75;5.75;;;;;15.48;57.81;101112.88;4923627;28;45314;-68
2023/05/11 01:10:13;;;;;;;;;7.25;7.00;;;;;15.47;57.72;101109.38;4923483;28;45279;-67
2023/05/11 01:13:09;;;;;;;;;10.00;4.00;;;;;15.48;58.16;101107.56;4914331;28;45520;-67
2023/05/11 01:15:45;;;;;;;;;9.75;6.25;;;;;15.42;58.04;101098.00;4923470;28;45198;-67
2023/05/11 01:18:20;;;;;;;;;7.50;6.25;;;;;15.40;57.96;101098.06;4923550;28;45327;-67
2023/05/11 01:20:47;;;;;;;;;10.25;8.25;;;;;15.40;57.81;101102.50;4923187;28;45516;-67
2023/05/11 01:23:30;;;;;;;;;10.00;8.25;;;;;15.40;57.78;101108.66;4922953;28;45299;-67
2023/05/11 01:26:14;;;;;;;;;6.25;6.25;;;;;15.39;58.24;101108.69;4923229;28;45405;-67
2023/05/11 01:29:17;;;;;;;;;7.50;5.75;;;;;15.36;58.20;101107.00;4922140;28;45333;-67
2023/05/11 01:31:46;;;;;;;;;5.50;5.50;;;;;15.33;57.80;101099.13;4923055;28;45205;-67
2023/05/11 01:34:22;;;;;;;;;6.75;6.25;;;;;15.31;57.87;101110.69;4922856;28;46927;-67
2023/05/11 01:36:59;;;;;;;;;8.25;4.75;;;;;15.28;57.92;101099.28;4911338;28;45397;-67
2023/05/11 01:39:31;;;;;;;;;9.00;6.00;;;;;15.31;57.57;101110.69;4923107;28;45460;-67
2023/05/11 01:42:00;;;;;;;;;5.25;5.25;;;;;15.28;57.74;101112.53;4923026;28;45308;-67
2023/05/11 01:44:30;;;;;;;;;8.25;6.50;;;;;15.24;58.13;101108.22;4923018;28;45444;-67
2023/05/11 01:46:59;;;;;;;;;5.25;4.75;;;;;15.23;58.08;101119.72;4923003;28;45304;-67
2023/05/11 01:49:26;;;;;;;;;7.00;5.25;;;;;15.19;57.92;101114.56;4922880;28;45324;-67
2023/05/11 01:51:52;;;;;;;;;11.00;9.75;;;;;15.20;57.96;101118.94;4922555;28;45440;-67
2023/05/11 01:54:20;;;;;;;;;9.00;8.25;;;;;15.18;58.01;101119.00;4922643;28;45355;-68
2023/05/11 01:56:47;;;;;;;;;11.00;10.50;;;;;15.18;57.56;101128.69;4921480;28;45277;-67
2023/05/11 01:59:14;;;;;;;;;8.75;8.25;;;;;15.13;58.02;101115.56;4922858;28;45316;-67
2023/05/11 02:01:40;;;;;;;;;6.75;6.75;;;;;15.11;57.74;101122.72;4922656;28;45322;-67
2023/05/11 02:04:08;;;;;;;;;8.50;7.75;;;;;15.10;57.74;101120.97;4922484;28;46104;-67
2023/05/11 02:06:36;;;;;;;;;9.75;6.50;;;;;15.05;57.45;101121.06;4922540;28;45247;-67
2023/05/11 02:09:02;;;;;;;;;7.25;5.50;;;;;15.07;57.48;101127.22;4922645;28;45370;-67
2023/05/11 02:11:29;;;;;;;;;6.25;5.00;;;;;15.06;57.75;101127.25;4922493;28;45639;-67
2023/05/11 02:13:57;;;;;;;;;4.50;3.50;;;;;15.04;57.62;101129.06;4921375;28;45342;-67
2023/05/11 02:16:24;;;;;;;;;9.75;5.25;;;;;15.03;57.64;101128.22;4922764;28;45422;-67
2023/05/11 02:18:50;;;;;;;;;8.25;4.75;;;;;15.00;57.47;101122.97;4921498;28;45374;-67
2023/05/11 02:21:16;;;;;;;;;4.25;3.50;;;;;15.00;57.80;101124.78;4937277;28;45485;-67
2023/05/11 02:23:45;;;;;;;;;6.25;4.50;;;;;15.02;57.45;101131.75;4922413;28;45362;-68
2023/05/11 02:26:12;;;;;;;;;4.00;3.00;;;;;15.01;58.05;101130.03;4921251;28;46077;-67
2023/05/11 02:28:38;;;;;;;;;4.75;3.50;;;;;14.98;57.90;101127.47;4937612;28;45556;-67
2023/05/11 02:31:09;;;;;;;;;3.00;1.75;;;;;15.00;57.61;101122.97;4922680;28;45235;-67
2023/05/11 02:33:42;;;;;;;;;3.75;1.50;;;;;15.00;57.57;101124.78;4922706;28;45429;-67
2023/05/11 02:36:09;;;;;;;;;5.50;2.25;;;;;15.01;57.46;101134.47;4922399;28;45881;-67
2023/05/11 02:38:37;;;;;;;;;5.00;2.75;;;;;14.99;58.00;101130.97;4922705;28;45449;-67
2023/05/11 02:41:10;;;;;;;;;3.50;2.50;;;;;14.98;57.43;101129.22;4922395;28;45188;-67
2023/05/11 02:43:39;;;;;;;;;4.00;2.25;;;;;14.98;57.62;101129.22;4922207;28;47250;-67
2023/05/11 02:46:10;;;;;;;;;3.75;3.50;;;;;14.97;57.88;101133.66;4922428;28;45378;-67
2023/05/11 02:48:43;;;;;;;;;4.50;2.25;;;;;14.95;57.88;101131.06;4921160;28;45346;-67
2023/05/11 02:51:11;;;;;;;;;1.50;0.50;;;;;14.98;57.95;101134.53;4922182;28;45544;-67
2023/05/11 02:53:39;;;;;;;;;2.00;2.00;;;;;14.96;57.66;101131.91;4920944;28;46196;-67
2023/05/11 02:56:05;;;;;;;;;4.00;2.25;;;;;14.93;57.82;101126.69;4922077;28;45332;-67
2023/05/11 02:58:31;;;;;;;;;3.25;1.00;;;;;14.94;58.10;101126.69;4921087;28;45305;-68
2023/05/11 03:00:57;;;;;;;;;4.50;2.25;;;;;14.91;57.71;101126.75;4922113;28;45427;-67
2023/05/11 03:03:23;;;;;;;;;5.25;2.75;;;;;14.89;57.59;101115.34;4922137;28;46248;-67
2023/05/11 03:05:48;;;;;;;;;3.25;2.25;;;;;14.90;57.86;101125.00;4922011;28;45268;-67
2023/05/11 03:08:14;;;;;;;;;3.25;2.50;;;;;14.91;57.71;101128.53;4922490;28;45313;-69
2023/05/11 03:10:41;;;;;;;;;2.75;2.00;;;;;14.92;57.67;101125.84;4922214;28;45368;-67
2023/05/11 03:13:08;;;;;;;;;5.50;2.25;;;;;14.89;58.08;101123.28;4921856;28;45291;-67
2023/05/11 03:15:35;;;;;;;;;4.75;4.00;;;;;14.88;57.75;101124.19;4922120;28;45216;-67
2023/05/11 03:18:03;;;;;;;;;7.00;4.75;;;;;14.86;57.74;101120.69;4920876;28;45358;-67
2023/05/11 03:20:30;;;;;;;;;4.00;3.50;;;;;14.88;57.93;101123.31;4921895;28;45513;-67
2023/05/11 03:22:56;;;;;;;;;7.75;5.50;;;;;14.87;57.74;101127.75;4921750;28;45643;-67
2023/05/11 03:25:22;;;;;;;;;5.50;4.00;;;;;14.84;58.07;101114.59;4923631;28;45635;-67
2023/05/11 03:27:49;;;;;;;;;9.50;7.00;;;;;14.84;57.93;101113.72;4925568;28;45229;-67
2023/05/11 03:30:16;;;;;;;;;9.25;6.50;;;;;14.83;57.89;101119.91;4925390;28;45247;-67
2023/05/11 03:32:41;;;;;;;;;6.75;4.50;;;;;14.84;58.00;101116.34;4925078;28;46227;-67
2023/05/11 03:35:07;;;;;;;;;9.25;9.25;;;;;14.81;57.89;101112.03;4925055;28;45255;-67
2023/05/11 03:37:37;;;;;;;;;7.00;6.00;;;;;14.81;57.99;101119.09;4925331;28;45307;-67
2023/05/11 03:40:03;;;;;;;;;4.50;3.25;;;;;14.78;57.70;101112.97;4925051;28;45477;-67
2023/05/11 03:42:29;;;;;;;;;10.00;6.00;;;;;14.80;57.80;101120.84;4923437;28;45989;-67
2023/05/11 03:44:58;;;;;;;;;5.00;5.00;;;;;14.74;58.19;101118.38;4925182;28;45228;-67
2023/05/11 03:47:26;;;;;;;;;8.00;6.00;;;;;14.77;57.76;101120.94;4924921;28;45292;-67
2023/05/11 03:49:52;;;;;;;;;6.25;5.25;;;;;14.76;57.50;101119.22;4924761;28;45499;-67
2023/05/11 03:52:19;;;;;;;;;3.50;3.50;;;;;14.75;58.01;101121.00;4923362;28;46116;-67
2023/05/11 03:54:45;;;;;;;;;3.25;3.25;;;;;14.72;58.04;101110.47;4924867;28;45263;-67
2023/05/11 03:57:10;;;;;;;;;3.25;2.00;;;;;14.73;57.80;101108.69;4924867;28;45327;-67
2023/05/11 03:59:38;;;;;;;;;3.50;2.00;;;;;14.69;58.15;101112.31;4923541;28;45542;-67
2023/05/11 04:02:04;;;;;;;;;6.50;4.00;;;;;14.71;57.82;101113.16;4924900;28;46566;-67
2023/05/11 04:04:30;;;;;;;;;2.75;2.75;;;;;14.68;58.01;101103.53;4924729;28;45399;-67
2023/05/11 04:06:56;;;;;;;;;2.00;0.75;;;;;14.66;58.33;101107.13;4923436;28;45371;-67
2023/05/11 04:09:21;;;;;;;;;2.25;2.25;;;;;14.65;58.06;101113.31;4924784;28;45459;-67
2023/05/11 04:11:46;;;;;;;;;4.50;2.50;;;;;14.62;57.80;101107.16;4924528;28;46284;-67
2023/05/11 04:14:12;;;;;;;;;5.50;3.75;;;;;14.63;58.25;101114.19;4924427;28;45200;-67
2023/05/11 04:16:37;;;;;;;;;3.75;3.00;;;;;14.62;57.61;101112.44;4924769;28;45303;-67
2023/05/11 04:19:03;;;;;;;;;5.00;2.50;;;;;14.61;58.35;101113.34;4924737;28;45578;-67
2023/05/11 04:21:28;;;;;;;;;2.75;1.75;;;;;14.57;58.36;101109.06;4924114;28;46254;-67
2023/05/11 04:23:53;;;;;;;;;4.50;2.50;;;;;14.57;58.00;101122.28;4924745;28;45210;-68
2023/05/11 04:26:18;;;;;;;;;6.50;5.00;;;;;14.57;58.00;101124.91;4924490;28;45216;-68
2023/05/11 04:28:44;;;;;;;;;3.50;3.50;;;;;14.56;57.68;101120.53;4923524;28;45262;-68
2023/05/11 04:31:09;;;;;;;;;5.75;4.50;;;;;14.55;58.29;101124.13;4923947;28;54577;-69
2023/05/11 04:33:34;;;;;;;;;5.00;4.25;;;;;14.52;57.93;101121.53;4924630;28;45290;-68
2023/05/11 04:36:00;;;;;;;;;5.25;3.00;;;;;14.54;58.21;101121.47;4923406;28;45262;-68
2023/05/11 04:38:26;;;;;;;;;4.50;4.00;;;;;14.53;57.91;101122.41;4924494;28;45231;-68
2023/05/11 04:40:51;;;;;;;;;7.00;6.00;;;;;14.51;58.21;101127.72;4924160;28;45590;-68
2023/05/11 04:43:17;;;;;;;;;5.00;3.50;;;;;14.46;58.00;101114.63;4922856;28;54402;-68
2023/05/11 04:45:49;;;;;;;;;4.75;4.75;;;;;14.45;57.99;101118.19;4924260;28;45323;-68
2023/05/11 04:48:15;;;;;;;;;5.25;5.25;;;;;14.50;58.35;101127.75;4924302;28;45342;-68
2023/05/11 04:50:40;;;;;;;;;4.25;3.25;;;;;14.49;57.69;101121.63;4923508;28;45232;-67
2023/05/11 04:53:06;;;;;;;;;5.25;3.50;;;;;14.45;57.82;101123.47;4922713;28;45337;-68
2023/05/11 04:55:31;;;;;;;;;5.00;3.75;;;;;14.48;58.34;101125.16;4924017;28;45339;-68
2023/05/11 04:57:56;;;;;;;;;3.00;3.00;;;;;14.46;58.12;101119.91;4924274;28;45271;-68
2023/05/11 05:00:22;;;;;;;;;5.75;5.25;;;;;14.45;58.29;101126.09;4923738;28;45382;-68
2023/05/11 05:02:49;;;;;;;;;5.50;4.50;;;;;14.45;58.26;101114.63;4923969;28;45323;-68
2023/05/11 05:05:15;;;;;;;;;4.75;4.25;;;;;14.47;58.29;101126.91;4923783;28;45341;-68
2023/05/11 05:07:40;;;;;;;;;6.00;5.00;;;;;14.47;57.98;101126.91;4923968;28;45519;-68
2023/05/11 05:10:07;;;;;;;;;4.75;4.75;;;;;14.47;58.07;101123.41;4923785;28;45475;-68
2023/05/11 05:12:34;;;;;;;;;5.75;5.75;;;;;14.47;58.32;101126.06;4923625;28;45301;-68
2023/05/11 05:14:59;;;;;;;;;5.00;3.50;;;;;14.47;57.85;101129.56;4923869;28;45509;-68
2023/05/11 05:17:25;;;;;;;;;5.25;4.75;;;;;14.45;58.35;101127.88;4923718;28;45458;-68
2023/05/11 05:19:50;;;;;;;;;9.00;6.50;;;;;14.47;58.15;101132.19;4923460;28;45286;-68
2023/05/11 05:22:15;;;;;;;;;5.50;5.50;;;;;14.47;58.04;101132.19;4923627;28;45311;-68
2023/05/11 05:24:41;;;;;;;;;8.00;6.50;;;;;14.52;58.13;101136.53;4923612;28;45224;-68
2023/05/11 05:27:06;;;;;;;;;6.50;6.00;;;;;14.53;57.94;101138.28;4922615;28;45522;-67
2023/05/11 05:29:31;;;;;;;;;8.00;7.75;;;;;14.49;58.01;101136.59;4921953;28;52164;-68
2023/05/11 05:31:58;;;;;;;;;5.25;4.50;;;;;14.52;58.11;101147.97;4922310;28;45365;-68
2023/05/11 05:34:24;;;;;;;;;7.00;5.75;;;;;14.40;58.28;101125.34;4923458;28;45377;-68
2023/05/11 05:36:50;;;;;;;;;7.00;7.00;;;;;14.45;58.16;101131.41;4922002;28;45531;-68
2023/05/11 05:39:15;;;;;;;;;6.00;4.50;;;;;14.55;58.17;101147.91;4921846;28;47253;-68
2023/05/11 05:41:41;;;;;;;;;9.50;7.75;;;;;14.55;58.18;101157.59;4923409;28;45327;-68
2023/05/11 05:44:06;;;;;;;;;8.25;5.75;;;;;14.56;58.21;101154.91;4923522;28;45303;-68
2023/05/11 05:46:32;;;;;;;;;7.25;7.25;;;;;14.55;58.29;101153.19;4923227;28;45581;-68
2023/05/11 05:48:57;;;;;;;;;10.25;7.25;;;;;14.54;58.07;101143.53;4923080;28;46035;-68
2023/05/11 05:51:23;;;;;;;;;9.25;8.00;;;;;14.59;58.26;101149.56;4922968;28;45383;-68
2023/05/11 05:53:48;;;;;;;;;6.25;6.25;;;;;14.57;58.25;101159.31;4923332;28;45410;-68
2023/05/11 05:56:13;;;;;;;;;8.75;8.75;;;;;14.61;58.66;101158.31;4923181;28;45493;-68
2023/05/11 05:58:38;;;;;;;;;7.50;5.00;;;;;14.63;58.12;101155.66;4923025;28;45231;-68
2023/05/11 06:01:04;;;;;;;;;11.25;9.50;;;;;14.61;58.41;101160.97;4921586;28;45825;-68
2023/05/11 06:03:30;;;;;;;;;10.50;9.00;;;;;14.61;58.08;101158.31;4923126;28;45427;-68
2023/05/11 06:05:55;;;;;;;;;27.00;21.75;;;;;14.60;58.64;101161.88;4922836;28;45494;-68
2023/05/11 06:08:20;;;;;;;;;9.00;7.75;;;;;14.63;58.63;101161.81;4922985;28;45160;-68
2023/05/11 06:10:46;;;;;;;;;7.25;7.25;;;;;14.64;58.09;101165.34;4922820;28;46744;-68
2023/05/11 06:13:11;;;;;;;;;8.00;8.00;;;;;14.65;58.47;101163.56;4922828;28;45542;-68
2023/05/11 06:15:36;;;;;;;;;13.75;13.00;;;;;14.66;58.36;101166.19;4922972;28;46187;-68
2023/05/11 06:18:02;;;;;;;;;8.50;6.75;;;;;14.66;57.82;101160.03;4921507;28;45901;-68
2023/05/11 06:20:27;;;;;;;;;9.50;8.25;;;;;14.62;58.13;101165.34;4922727;28;45318;-68
2023/05/11 06:22:52;;;;;;;;;11.50;9.00;;;;;14.65;58.34;101163.56;4922912;28;45393;-68
2023/05/11 06:25:17;;;;;;;;;6.50;6.50;;;;;14.66;58.26;101171.47;4922378;28;53413;-68
2023/05/11 06:27:43;;;;;;;;;11.25;9.25;;;;;14.63;58.30;101172.38;4921539;28;46986;-68
2023/05/11 06:30:08;;;;;;;;;10.50;9.00;;;;;14.68;58.01;101182.88;4922524;28;50955;-68
2023/05/11 06:32:34;;;;;;;;;13.50;10.25;;;;;14.66;58.41;101165.31;4922786;28;45352;-68
2023/05/11 06:34:59;;;;;;;;;19.25;18.00;;;;;14.68;58.31;101176.72;4921086;28;45864;-68
2023/05/11 06:37:28;;;;;;;;;13.00;11.25;;;;;14.71;58.27;101177.50;4922499;28;45294;-68
2023/05/11 06:39:53;;;;;;;;;11.25;10.50;;;;;14.70;57.94;101172.25;4922419;28;45250;-68
2023/05/11 06:42:18;;;;;;;;;12.25;9.50;;;;;14.71;58.39;101174.00;4922455;28;45335;-68
2023/05/11 06:44:44;;;;;;;;;12.75;9.50;;;;;14.74;58.33;101179.22;4922497;28;45225;-68
2023/05/11 06:47:10;;;;;;;;;12.00;11.75;;;;;14.75;58.11;101186.25;4922442;28;46487;-68
2023/05/11 06:49:35;;;;;;;;;12.75;11.50;;;;;14.75;57.90;101181.84;4922446;28;45901;-68
2023/05/11 06:52:01;;;;;;;;;13.00;8.75;;;;;14.74;58.02;101176.56;4922535;28;45247;-68
2023/05/11 06:54:26;;;;;;;;;11.25;9.75;;;;;14.77;58.30;101179.16;4921025;28;45713;-68
2023/05/11 06:56:51;;;;;;;;;12.00;11.00;;;;;14.75;57.97;101175.66;4922534;28;45323;-68
2023/05/11 06:59:17;;;;;;;;;9.25;9.25;;;;;14.76;58.34;101180.06;4923643;28;45324;-68
2023/05/11 07:01:42;;;;;;;;;11.00;9.25;;;;;14.74;58.10;101176.56;4925914;28;45298;-68
2023/05/11 07:04:07;;;;;;;;;10.50;9.25;;;;;14.70;58.11;101169.63;4925656;28;45418;-69
2023/05/11 07:06:33;;;;;;;;;12.50;10.50;;;;;14.78;58.14;101188.84;4925535;28;45558;-69
2023/05/11 07:08:58;;;;;;;;;8.50;7.75;;;;;14.76;58.16;101178.25;4925601;28;45319;-69
2023/05/11 07:11:24;;;;;;;;;11.00;9.50;;;;;14.78;58.25;101186.19;4925827;28;45331;-68
2023/05/11 07:13:50;;;;;;;;;11.25;9.00;;;;;14.78;58.06;101175.59;4925395;28;45453;-69
2023/05/11 07:16:15;;;;;;;;;11.75;11.50;;;;;14.80;58.26;101184.34;4925353;28;46294;-68
2023/05/11 07:18:40;;;;;;;;;13.75;10.50;;;;;14.78;57.92;101188.84;4924121;28;45339;-69
2023/05/11 07:21:06;;;;;;;;;10.00;9.00;;;;;14.77;57.93;101179.16;4925435;28;45538;-69
2023/05/11 07:23:31;;;;;;;;;11.00;9.50;;;;;14.79;58.14;101193.19;4925080;28;50527;-69
2023/05/11 07:25:57;;;;;;;;;10.25;8.50;;;;;14.77;58.34;101185.28;4925349;28;45327;-69
2023/05/11 07:28:22;;;;;;;;;10.75;9.00;;;;;14.77;58.45;101185.28;4925344;28;45416;-69
2023/05/11 07:30:47;;;;;;;;;7.25;6.25;;;;;14.77;58.17;101184.44;4925593;28;45445;-69
2023/05/11 07:33:13;;;;;;;;;13.00;10.50;;;;;14.79;57.86;101179.97;4925306;28;45216;-69
2023/05/11 07:35:38;;;;;;;;;13.25;11.25;;;;;14.79;58.18;101177.31;4924983;28;46284;-69
2023/05/11 07:38:06;;;;;;;;;11.00;10.50;;;;;14.76;58.34;101177.41;4925091;28;45223;-69
2023/05/11 07:40:32;;;;;;;;;8.75;8.50;;;;;14.80;58.29;101181.72;4925256;28;45331;-69
2023/05/11 07:42:57;;;;;;;;;12.25;9.25;;;;;14.79;58.07;101185.25;4923559;28;45355;-69
2023/05/11 07:45:22;;;;;;;;;13.00;11.25;;;;;14.84;57.97;101186.03;4925175;28;45461;-69
2023/05/11 07:47:48;;;;;;;;;12.25;10.25;;;;;14.83;58.42;101186.94;4924930;28;45456;-69
2023/05/11 07:50:13;;;;;;;;;12.00;11.00;;;;;14.89;58.19;101189.44;4924935;28;45370;-69
2023/05/11 07:52:38;;;;;;;;;10.50;10.50;;;;;14.90;58.15;101185.84;4924810;28;45603;-69
2023/05/11 07:55:05;;;;;;;;;12.25;11.75;;;;;14.90;57.94;101180.56;4924912;28;46045;-69
2023/05/11 07:57:30;;;;;;;;;11.00;11.00;;;;;14.93;58.02;101180.50;4923615;28;45265;-69
2023/05/11 07:59:55;;;;;;;;;14.75;13.50;;;;;14.95;58.07;101184.00;4923652;28;45337;-69
2023/05/11 08:02:21;;;;;;;;;18.75;15.00;;;;;14.97;57.94;101185.69;4924513;28;45552;-69
2023/05/11 08:04:46;;;;;;;;;18.00;14.50;;;;;14.97;58.09;101180.41;4923141;28;46907;-69
2023/05/11 08:07:12;;;;;;;;;13.50;12.50;;;;;15.00;58.41;101180.34;4939506;28;45479;-69
2023/05/11 08:09:37;;;;;;;;;15.75;12.75;;;;;15.03;58.39;101188.19;4924354;28;46464;-69
2023/05/11 08:12:02;;;;;;;;;17.50;13.25;;;;;15.03;58.35;101183.78;4923985;28;45223;-69
2023/05/11 08:14:28;;;;;;;;;13.00;13.00;;;;;15.05;58.33;101184.59;4924386;28;45707;-69
2023/05/11 08:16:53;;;;;;;;;19.25;12.25;;;;;15.05;58.17;101171.38;4924552;28;45361;-70
2023/05/11 08:19:19;;;;;;;;;11.75;11.75;;;;;15.10;58.01;101177.41;4924828;28;45228;-69
2023/05/11 08:21:45;;;;;;;;;10.50;10.00;;;;;15.12;57.91;101174.75;4923125;28;45424;-69
2023/05/11 08:24:11;;;;;;;;;10.50;10.00;;;;;15.13;58.08;101175.59;4923185;28;48319;-69
2023/05/11 08:26:37;;;;;;;;;12.00;11.00;;;;;15.16;57.83;101173.75;4922993;28;45399;-69
2023/05/11 08:29:05;;;;;;;;;10.00;10.00;;;;;15.18;57.79;101185.16;4923194;28;45271;-69
2023/05/11 08:31:30;;;;;;;;;11.50;8.75;;;;;15.22;57.75;101178.00;4924365;28;45498;-69
2023/05/11 08:33:56;;;;;;;;;10.00;10.00;;;;;15.24;58.02;101168.25;4924184;28;45419;-69
2023/05/11 08:36:21;;;;;;;;;13.50;12.50;;;;;15.22;57.82;101165.63;4924169;28;45331;-69
2023/05/11 08:38:47;;;;;;;;;11.75;8.25;;;;;15.24;58.06;101163.84;4924566;28;45240;-69
2023/05/11 08:41:12;;;;;;;;;6.50;6.25;;;;;15.31;58.07;101175.13;4924198;28;45254;-69
2023/05/11 08:43:39;;;;;;;;;12.00;10.00;;;;;15.32;58.17;101166.25;4924155;28;46363;-69
2023/05/11 08:46:06;;;;;;;;;11.25;9.75;;;;;15.28;58.30;101154.00;4923291;28;45243;-69
2023/05/11 08:48:32;;;;;;;;;12.75;10.50;;;;;15.41;58.33;101173.94;4922940;28;45393;-69
2023/05/11 08:50:58;;;;;;;;;11.00;10.50;;;;;15.42;58.13;101167.75;4922448;28;45462;-70
2023/05/11 08:53:23;;;;;;;;;14.25;11.00;;;;;15.46;58.03;101168.53;4922729;28;47118;-70
2023/05/11 08:55:50;;;;;;;;;13.00;8.25;;;;;15.51;57.87;101174.56;4923884;28;45397;-69
2023/05/11 08:58:21;;;;;;;;;9.00;8.25;;;;;15.51;57.66;101174.56;4924176;28;45504;-70
2023/05/11 09:00:48;;;;;;;;;8.75;7.50;;;;;15.55;57.82;101178.84;4922572;28;45447;-69
2023/05/11 09:03:16;;;;;;;;;12.75;7.75;;;;;15.56;57.66;101170.00;4923667;28;45334;-69
2023/05/11 09:05:44;;;;;;;;;8.75;7.75;;;;;15.56;57.89;101170.00;4923587;28;45468;-69
2023/05/11 09:08:12;;;;;;;;;11.75;7.50;;;;;15.59;58.16;101169.91;4923960;28;45245;-70
2023/05/11 09:10:37;;;;;;;;;7.25;7.25;;;;;15.59;57.79;101166.41;4922526;28;46283;-70
2023/05/11 09:13:03;;;;;;;;;10.25;10.25;;;;;15.65;57.75;101173.31;4923360;28;46145;-70
2023/05/11 09:15:29;;;;;;;;;11.25;10.25;;;;;15.63;58.07;101160.09;4923588;28;45354;-70
2023/05/11 09:17:54;;;;;;;;;13.25;9.00;;;;;15.66;57.75;101167.09;4923851;28;45330;-70
2023/05/11 09:20:28;;;;;;;;;11.50;10.50;;;;;15.69;57.74;101167.88;4923408;28;45465;-70
2023/05/11 09:22:54;;;;;;;;;10.00;9.25;;;;;15.70;57.55;101169.63;4923026;28;45423;-70
2023/05/11 09:25:20;;;;;;;;;10.25;8.25;;;;;15.77;57.67;101171.19;4923256;28;45287;-70
2023/05/11 09:27:46;;;;;;;;;10.50;8.50;;;;;15.76;57.93;101165.94;4923708;28;45283;-70
2023/05/11 09:30:14;;;;;;;;;11.25;11.25;;;;;15.82;57.50;101179.00;4923677;28;45373;-70
2023/05/11 09:32:57;;;;;;;;;12.25;9.00;;;;;15.83;57.83;101170.16;4923299;28;45298;-70
2023/05/11 09:35:29;;;;;;;;;7.25;7.25;;;;;15.85;57.98;101172.78;4923358;28;45256;-70
2023/05/11 09:38:23;;;;;;;;;11.50;9.25;;;;;15.87;57.44;101173.56;4923539;28;45414;-70
2023/05/11 09:40:51;;;;;;;;;10.00;10.00;;;;;15.88;57.75;101170.03;4922377;28;45644;-70
2023/05/11 09:43:27;;;;;;;;;11.75;10.50;;;;;15.90;57.35;101169.06;4923168;28;45259;-70
2023/05/11 09:45:54;;;;;;;;;9.50;8.00;;;;;15.89;57.22;101164.66;4921953;28;45294;-70
2023/05/11 09:48:20;;;;;;;;;13.00;11.00;;;;;15.96;57.15;101159.19;4923370;28;45351;-70
2023/05/11 09:50:46;;;;;;;;;11.25;10.00;;;;;15.97;57.41;101166.22;4922749;28;45511;-70
2023/05/11 09:53:12;;;;;;;;;12.00;10.75;;;;;16.01;57.52;101165.22;4923140;28;46342;-70
2023/05/11 09:55:37;;;;;;;;;12.00;9.50;;;;;16.00;57.56;101156.41;4921536;28;45261;-70
2023/05/11 09:58:03;;;;;;;;;10.50;9.50;;;;;16.04;57.07;101151.88;4923242;28;45359;-70
2023/05/11 10:00:29;;;;;;;;;8.50;8.25;;;;;16.05;57.22;101158.91;4922933;28;45627;-70
2023/05/11 10:03:06;;;;;;;;;11.25;11.00;;;;;16.05;57.24;101149.19;4922849;28;46737;-71
2023/05/11 10:05:34;;;;;;;;;10.00;9.50;;;;;16.05;57.13;101148.28;4922576;28;45320;-70
2023/05/11 10:08:03;;;;;;;;;12.50;11.00;;;;;16.10;57.60;101149.06;4923028;28;45307;-70
2023/05/11 10:10:31;;;;;;;;;13.00;11.25;;;;;16.08;57.13;101150.88;4922585;28;45473;-70
2023/05/11 10:12:59;;;;;;;;;11.25;11.25;;;;;16.14;56.96;101157.75;4922370;28;46088;-70
2023/05/11 10:15:28;;;;;;;;;9.00;8.25;;;;;16.15;57.14;101160.38;4922625;28;45197;-70
2023/05/11 10:17:54;;;;;;;;;14.75;11.75;;;;;16.17;57.05;101152.38;4921535;28;45342;-70
2023/05/11 10:20:20;;;;;;;;;11.75;8.75;;;;;16.18;57.26;101147.00;4922296;28;45332;-71
2023/05/11 10:22:46;;;;;;;;;8.25;8.25;;;;;16.21;57.11;101151.34;4921227;28;48562;-70
2023/05/11 10:25:14;;;;;;;;;8.75;7.75;;;;;16.19;57.08;101137.28;4922624;28;45328;-70
2023/05/11 10:27:39;;;;;;;;;7.25;6.50;;;;;16.24;57.24;101151.28;4922842;28;45338;-71
2023/05/11 10:30:07;;;;;;;;;12.00;8.25;;;;;16.25;56.97;101145.91;4921133;28;45352;-71
2023/05/11 10:32:36;;;;;;;;;12.25;9.00;;;;;16.27;57.18;101142.34;4922459;28;46982;-70
2023/05/11 10:35:03;;;;;;;;;9.25;6.50;;;;;16.26;56.85;101141.47;4921581;28;45217;-70
2023/05/11 10:37:29;;;;;;;;;12.00;8.25;;;;;16.27;56.77;101143.19;4922675;28;45331;-70
2023/05/11 10:39:56;;;;;;;;;8.75;8.75;;;;;16.24;56.99;101136.22;4922373;28;45452;-70
2023/05/11 10:42:41;;;;;;;;;8.50;7.00;;;;;16.30;56.96;101142.25;4920801;28;48490;-71
2023/05/11 10:45:09;;;;;;;;;7.50;6.00;;;;;16.32;56.74;101143.91;4922549;28;45291;-70
2023/05/11 10:48:23;;;;;;;;;9.75;9.50;;;;;16.33;57.10;101142.16;4922297;28;45381;-70
2023/05/11 10:51:26;;;;;;;;;8.00;8.00;;;;;16.34;56.84;101143.88;4903182;28;45394;-70
2023/05/11 10:53:54;;;;;;;;;10.75;8.50;;;;;16.30;56.92;101134.28;4936722;28;46773;-70
2023/05/11 10:56:59;;;;;;;;;11.00;8.75;;;;;16.36;56.96;101145.59;4920905;28;45397;-70
2023/05/11 10:59:43;;;;;;;;;12.50;9.00;;;;;16.37;57.43;101139.34;4934526;28;45292;-70
2023/05/11 11:02:09;;;;;;;;;11.00;7.00;;;;;16.36;56.78;101132.31;4922026;28;45328;-70
2023/05/11 11:04:48;;;;;;;;;9.50;8.00;;;;;16.40;56.56;101141.91;4921873;28;45515;-70
2023/05/11 11:07:18;;;;;;;;;11.25;10.00;;;;;16.39;56.70;101140.16;4922295;28;45286;-70
2023/05/11 11:10:06;;;;;;;;;11.75;10.75;;;;;16.39;57.08;101134.84;4920718;28;45314;-70
2023/05/11 11:12:33;;;;;;;;;10.25;8.25;;;;;16.42;56.95;101134.75;4921954;28;45418;-70
2023/05/11 11:15:02;;;;;;;;;10.00;10.00;;;;;16.44;56.62;101137.38;4921912;28;45227;-70
2023/05/11 11:17:33;;;;;;;;;11.00;10.50;;;;;16.45;56.86;101139.09;4922093;28;45389;-70
2023/05/11 11:20:00;;;;;;;;;14.00;10.75;;;;;16.44;56.71;101136.50;4921835;28;45300;-70
2023/05/11 11:22:39;;;;;;;;;8.50;8.25;;;;;16.47;56.83;101137.25;4920434;28;45464;-71